• Join FlightAware (Why Join?)
  • Login
  • US Flag 
07:23AM EDT


 

Airport Tracker/Info


-or-


 

Live Flight TrackerFlight Track Log ✈ XOJ552 ✈ 05-Jul-2013 ✈ KTEB - KBED

Flight Track Log - Related Links

Times and Time Zones

All times are in EDT time to prevent confusion due to time zone crossing. See the XOJ552 flight status page for this flight to view local times or setup timezone preferences in your user account.

Time Position Orientation Groundspeed Altitude Reporting Facility
EDT Latitude Longitude Course Direction KTS MPH feet Rate Location/Type
11:59AM 40.8167 -74.1333 51° Northeast 222 255 1,600  Level New York TRACON
12:00PM 40.8000 -74.2000 252° West 196 226 2,800 1,260 Climbing New York TRACON
12:02PM 40.9442 -74.2261 352° North 222 255 6,000 900 Climbing Boston Center
12:03PM 41.0197 -74.1925 19° North 259 298 6,100  Climbing Boston Center
12:04PM 41.0032 -73.8095 51° Northeast  Level Estimated
12:04PM 41.0867 -74.1667 16° North 266 306 6,100  Level Boston Center
12:05PM 41.1361 -74.0772 54° Northeast 257 296 7,700 1,800 Climbing Boston Center
12:06PM 41.1625 -73.9786 70° East 280 322 9,800 2,100 Climbing Boston Center
12:07PM 41.1908 -73.8717 71° East 323 372 12,000 2,460 Climbing Boston Center
12:08PM 41.2281 -73.7261 71° East 367 422 14,800 2,100 Climbing Boston Center
12:09PM 41.2736 -73.5669 69° East 403 464 16,200 1,080 Climbing Boston Center
12:10PM 41.3228 -73.4378 63° Northeast 421 484 17,000 360 Climbing Boston Center
12:11PM 41.3758 -73.2978 63° Northeast 427 491 17,000  Level Boston Center
12:12PM 41.4228 -73.1681 64° Northeast 427 491 17,000 -300 Level Boston Center
12:13PM 41.4778 -73.0108 65° Northeast 420 483 16,400 -960 Descending Boston Center
12:14PM 41.5264 -72.8700 65° Northeast 392 451 15,100 -720 Descending Boston Center
12:15PM 41.5706 -72.7453 65° Northeast 387 445 15,000 -60 Descending Boston Center
12:16PM 41.6250 -72.5928 64° Northeast 406 467 15,000 -480 Level Boston Center
12:17PM 41.6939 -72.4956 46° Northeast 397 457 14,100 -1,500 Descending Boston Center
12:18PM 41.7586 -72.4233 40° Northeast 367 422 12,500 -1,800 Descending Boston Center
12:19PM 41.8253 -72.3508 39° Northeast 342 394 11,200 -840 Descending Boston Center
12:20PM 41.8981 -72.2672 41° Northeast 344 396 10,900 -600 Descending Boston Center
12:21PM 41.9769 -72.1719 42° Northeast 355 409 10,000 -780 Descending Boston Center
12:22PM 42.0478 -72.0961 38° Northeast 320 368 9,400 -1,020 Descending Boston Center
12:23PM 42.1100 -72.0231 41° Northeast 292 336 8,000 -1,320 Descending Boston Center
12:24PM 42.1700 -71.9583 39° Northeast 277 319 6,800 -1,140 Descending Boston Center
12:25PM 42.2281 -71.8933 40° Northeast 274 315 5,700 -720 Descending Boston Center
12:27PM 42.3333 -71.7833 38° Northeast 284 327 5,000 -300 Descending KA90
12:28PM 42.3833 -71.7000 51° Northeast 285 328 5,000  Level KA90
12:29PM 42.4333 -71.6167 51° Northeast 285 328 5,000 -600 Level KA90
12:30PM 42.4833 -71.5500 45° Northeast 262 302 3,900 -1,080 Descending KA90
12:31PM 42.5333 -71.4833 44° Northeast 254 292 3,000 -480 Descending KA90
12:32PM 42.5667 -71.4000 61° Northeast 264 304 3,000 -300 Level KA90
12:33PM 42.5667 -71.3000 90° East 238 274 2,400 -540 Descending KA90
12:34PM 42.5500 -71.2333 109° East 195 224 2,000 -420 Descending KA90
12:35PM 42.5000 -71.2000 154° Southeast 184 212 1,600 -600 Descending KA90
12:36PM 42.4667 -71.2333 216° Southwest 153 176 900 -720 Descending KA90
12:38PM 42.4667 -71.2833 204° Southwest  Level FlightAware Approximate
12:45PM 42.4699 -71.2890 204° Southwest  Level Estimated